Time;durP1;ratioP1;P1;durP2;ratioP2;P2;SDS_P1;SDS_P2;PMS_P1;PMS_P2;Temp;Humidity;BMP_temperature;BMP_pressure;BME280_temperature;BME280_humidity;BME280_pressure;Samples;Min_cycle;Max_cycle;Signal;HPM_P1;HPM_P2
2022/05/12 00:00:12;;;;;;;24.42;3.60;;;18.30;99.90;;;;;;5017287;28;20040;-67
2022/05/12 00:02:39;;;;;;;24.40;3.40;;;18.40;99.90;;;;;;5022867;28;20029;-68
2022/05/12 00:05:07;;;;;;;24.58;3.33;;;18.40;99.90;;;;;;5016285;28;20383;-68
2022/05/12 00:07:35;;;;;;;29.27;4.85;;;18.50;99.90;;;;;;5024141;28;20030;-68
2022/05/12 00:10:03;;;;;;;28.30;4.38;;;18.60;99.90;;;;;;5024714;28;20025;-68
2022/05/12 00:12:31;;;;;;;22.60;3.17;;;18.70;99.90;;;;;;5023108;28;20119;-68
2022/05/12 00:14:58;;;;;;;30.08;3.80;;;18.70;99.90;;;;;;5021969;28;20026;-68
2022/05/12 00:17:25;;;;;;;33.53;4.68;;;18.80;99.90;;;;;;5021285;28;20115;-68
2022/05/12 00:19:52;;;;;;;30.77;4.65;;;18.80;99.90;;;;;;5021489;28;20033;-68
2022/05/12 00:22:20;;;;;;;33.97;4.30;;;18.80;99.90;;;;;;5017101;28;20083;-68
2022/05/12 00:24:47;;;;;;;36.47;5.40;;;18.90;99.90;;;;;;5020263;28;20124;-68
2022/05/12 00:27:14;;;;;;;29.52;4.55;;;18.90;99.90;;;;;;5020226;28;20030;-68
2022/05/12 00:29:41;;;;;;;33.88;5.43;;;18.90;99.90;;;;;;5023998;28;20014;-68
2022/05/12 00:32:09;;;;;;;33.38;5.30;;;18.90;99.90;;;;;;5016990;28;20017;-68
2022/05/12 00:34:36;;;;;;;34.83;6.18;;;19.00;99.90;;;;;;5023899;28;20543;-68
2022/05/12 00:37:03;;;;;;;42.67;5.78;;;19.00;99.90;;;;;;5022749;28;20030;-69
2022/05/12 00:39:31;;;;;;;36.17;4.53;;;19.00;99.90;;;;;;5021316;28;20018;-68
2022/05/12 00:41:58;;;;;;;34.42;4.65;;;18.90;99.90;;;;;;5022016;28;20034;-69
2022/05/12 00:44:25;;;;;;;38.38;5.28;;;18.90;99.90;;;;;;5019178;28;20417;-69
2022/05/12 00:46:53;;;;;;;33.50;5.30;;;18.90;99.90;;;;;;5018803;28;20076;-69
2022/05/12 00:49:28;;;;;;;31.73;4.65;;;18.90;99.90;;;;;;5023764;28;20030;-69
2022/05/12 00:52:07;;;;;;;34.33;4.55;;;18.90;99.90;;;;;;5025666;28;20100;-69
2022/05/12 00:54:40;;;;;;;30.83;5.00;;;18.90;99.90;;;;;;5025045;28;20417;-70
2022/05/12 00:57:11;;;;;;;31.52;5.07;;;18.90;99.90;;;;;;5019682;28;20028;-70
2022/05/12 00:59:38;;;;;;;34.05;5.35;;;18.90;99.90;;;;;;5026225;28;20029;-70
2022/05/12 01:02:10;;;;;;;26.98;4.15;;;18.90;99.90;;;;;;5030365;28;20045;-70
2022/05/12 01:04:39;;;;;;;39.13;5.10;;;19.00;99.90;;;;;;5015896;28;20068;-70
2022/05/12 01:07:06;;;;;;;29.00;5.07;;;19.00;99.90;;;;;;5018128;28;20057;-69
2022/05/12 01:09:33;;;;;;;29.45;4.40;;;19.00;99.90;;;;;;5020282;28;20029;-70
2022/05/12 01:12:02;;;;;;;29.52;4.80;;;19.00;99.90;;;;;;5025889;28;20029;-69
2022/05/12 01:14:29;;;;;;;33.78;5.53;;;19.00;99.90;;;;;;5019357;28;20036;-70
2022/05/12 01:17:02;;;;;;;32.05;4.18;;;19.10;99.90;;;;;;5018668;28;20022;-70
2022/05/12 01:19:35;;;;;;;39.83;4.85;;;19.10;99.90;;;;;;5024632;28;20030;-69
2022/05/12 01:22:05;;;;;;;31.17;6.43;;;19.10;99.90;;;;;;5022315;28;20148;-69
2022/05/12 01:24:35;;;;;;;29.70;4.70;;;19.20;99.90;;;;;;5025823;28;20105;-69
2022/05/12 01:27:24;;;;;;;36.83;5.85;;;19.20;99.90;;;;;;5018670;28;20030;-70
2022/05/12 01:29:58;;;;;;;41.58;5.55;;;19.40;99.90;;;;;;5024005;28;20080;-71
2022/05/12 01:32:28;;;;;;;38.23;4.90;;;19.50;99.90;;;;;;5025543;28;20100;-70
2022/05/12 01:34:57;;;;;;;35.10;5.03;;;19.50;99.90;;;;;;5026572;28;20744;-69
2022/05/12 01:37:25;;;;;;;43.88;6.40;;;19.50;99.90;;;;;;5017398;28;20026;-69
2022/05/12 01:39:53;;;;;;;35.38;5.20;;;19.50;99.90;;;;;;5028609;28;20493;-69
2022/05/12 01:42:20;;;;;;;44.80;6.00;;;19.50;99.90;;;;;;5014882;28;20419;-70
2022/05/12 01:44:48;;;;;;;38.92;6.45;;;19.50;99.90;;;;;;5026422;28;20068;-70
2022/05/12 01:47:16;;;;;;;34.38;6.60;;;19.50;99.90;;;;;;5033704;28;20131;-69
2022/05/12 01:49:43;;;;;;;41.75;5.43;;;19.60;99.90;;;;;;5021567;28;20034;-70
2022/05/12 01:52:11;;;;;;;36.70;6.30;;;19.70;99.90;;;;;;5026393;28;20514;-69
2022/05/12 01:54:38;;;;;;;37.75;6.00;;;19.70;99.90;;;;;;5018328;28;20052;-69
2022/05/12 01:57:06;;;;;;;39.55;6.53;;;19.80;99.90;;;;;;5031094;28;20033;-69
2022/05/12 01:59:34;;;;;;;36.05;5.03;;;19.60;99.90;;;;;;5020431;28;20026;-69
2022/05/12 02:02:03;;;;;;;32.03;5.50;;;19.60;99.90;;;;;;5026804;28;20037;-69
2022/05/12 02:04:33;;;;;;;30.52;6.70;;;19.60;99.90;;;;;;5032827;28;20056;-70
2022/05/12 02:07:00;;;;;;;38.45;6.80;;;19.70;99.90;;;;;;5023876;28;20028;-69
2022/05/12 02:09:27;;;;;;;42.63;6.15;;;19.70;99.90;;;;;;5018071;28;20048;-69
2022/05/12 02:11:55;;;;;;;45.28;5.63;;;19.80;99.90;;;;;;5017908;28;20034;-69
2022/05/12 02:14:22;;;;;;;42.47;6.57;;;19.80;99.90;;;;;;5015520;28;20103;-69
2022/05/12 02:16:49;;;;;;;47.22;5.55;;;20.00;99.90;;;;;;5021199;28;20052;-69
2022/05/12 02:19:17;;;;;;;47.10;6.22;;;20.10;99.90;;;;;;5031081;28;20456;-69
2022/05/12 02:21:45;;;;;;;38.72;6.25;;;20.00;99.90;;;;;;5016764;28;20535;-70
2022/05/12 02:24:12;;;;;;;36.40;5.43;;;20.10;99.90;;;;;;5028148;28;20112;-69
2022/05/12 02:26:40;;;;;;;41.35;5.43;;;20.20;99.90;;;;;;5021982;28;20026;-69
2022/05/12 02:29:07;;;;;;;41.05;6.22;;;20.20;99.90;;;;;;5015774;28;20516;-70
2022/05/12 02:31:34;;;;;;;44.25;5.45;;;20.20;99.90;;;;;;5016336;28;20022;-70
2022/05/12 02:34:02;;;;;;;32.08;4.55;;;20.20;99.90;;;;;;5027601;28;20040;-69
2022/05/12 02:36:29;;;;;;;31.83;4.63;;;20.20;99.90;;;;;;5016056;28;20034;-69
2022/05/12 02:38:57;;;;;;;34.28;4.90;;;20.20;99.90;;;;;;5025290;28;20021;-71
2022/05/12 02:41:24;;;;;;;35.08;4.90;;;20.10;99.90;;;;;;5028631;28;20025;-69
2022/05/12 02:43:52;;;;;;;35.83;5.95;;;20.10;99.90;;;;;;5026415;28;20025;-70
2022/05/12 02:46:20;;;;;;;41.35;5.75;;;20.20;99.90;;;;;;5023240;28;20502;-70
2022/05/12 02:48:50;;;;;;;33.58;4.65;;;20.10;99.90;;;;;;5026314;28;20029;-70
2022/05/12 02:51:17;;;;;;;32.90;5.70;;;20.10;99.90;;;;;;5020263;28;20034;-71
2022/05/12 02:53:45;;;;;;;33.03;5.25;;;20.10;99.90;;;;;;5017240;28;20072;-70
2022/05/12 02:56:13;;;;;;;34.03;5.22;;;20.00;99.90;;;;;;5020452;28;20026;-70
2022/05/12 02:58:41;;;;;;;35.08;5.28;;;19.90;99.90;;;;;;5018018;28;20401;-70
2022/05/12 03:01:08;;;;;;;34.90;5.75;;;19.90;99.90;;;;;;5025941;28;20080;-69
2022/05/12 03:03:36;;;;;;;33.65;5.05;;;19.80;99.90;;;;;;5026215;28;20030;-70
2022/05/12 03:06:03;;;;;;;33.58;6.45;;;19.70;99.90;;;;;;5022279;28;20021;-70
2022/05/12 03:08:30;;;;;;;29.42;5.03;;;19.60;99.90;;;;;;5020749;28;20035;-70
2022/05/12 03:10:58;;;;;;;19.95;3.70;;;19.50;99.90;;;;;;5020273;28;20022;-70
2022/05/12 03:13:25;;;;;;;30.58;4.47;;;19.40;99.90;;;;;;5023749;28;20504;-69
2022/05/12 03:15:52;;;;;;;28.58;5.60;;;19.40;99.90;;;;;;5029097;28;20048;-70
2022/05/12 03:18:20;;;;;;;21.88;3.53;;;19.40;99.90;;;;;;5022235;28;20632;-70
2022/05/12 03:20:47;;;;;;;24.67;3.50;;;19.40;99.90;;;;;;5024095;28;20113;-70
2022/05/12 03:23:15;;;;;;;24.98;4.70;;;19.50;99.90;;;;;;5030035;28;20095;-70
2022/05/12 03:25:45;;;;;;;37.63;5.18;;;19.50;99.90;;;;;;5015640;28;20032;-70
2022/05/12 03:28:12;;;;;;;26.98;4.22;;;19.60;99.90;;;;;;5031236;28;20040;-70
2022/05/12 03:30:43;;;;;;;31.00;4.32;;;19.50;99.90;;;;;;5023918;28;20033;-70
2022/05/12 03:33:11;;;;;;;38.83;4.80;;;19.60;99.90;;;;;;5027272;28;20026;-69
2022/05/12 03:35:39;;;;;;;34.47;4.65;;;19.60;99.90;;;;;;5021254;28;20029;-71
2022/05/12 03:38:06;;;;;;;26.75;4.68;;;19.60;99.90;;;;;;5022238;28;20027;-70
2022/05/12 03:40:34;;;;;;;39.63;4.38;;;19.70;99.90;;;;;;5025599;28;20087;-70
2022/05/12 03:43:01;;;;;;;41.38;6.70;;;19.70;99.90;;;;;;5018556;28;20022;-70
2022/05/12 03:45:33;;;;;;;36.20;6.53;;;19.70;99.90;;;;;;5024127;28;20037;-70
2022/05/12 03:48:01;;;;;;;30.73;4.97;;;19.80;99.90;;;;;;5030282;28;20022;-70
2022/05/12 03:50:29;;;;;;;35.00;5.07;;;19.80;99.90;;;;;;5013066;28;20038;-70
2022/05/12 03:52:57;;;;;;;40.28;5.88;;;19.80;99.90;;;;;;5018066;28;20375;-70
2022/05/12 03:55:27;;;;;;;31.55;4.47;;;19.70;99.90;;;;;;5017385;28;20022;-71
2022/05/12 03:57:55;;;;;;;36.58;5.55;;;19.80;99.90;;;;;;5020089;28;20041;-70
2022/05/12 04:00:26;;;;;;;36.50;5.47;;;19.80;99.90;;;;;;5017234;28;20030;-70
2022/05/12 04:02:54;;;;;;;42.63;5.97;;;19.80;99.90;;;;;;5020450;28;20026;-72
2022/05/12 04:05:21;;;;;;;40.28;6.22;;;19.90;99.90;;;;;;5019361;28;20026;-70
2022/05/12 04:07:49;;;;;;;41.60;6.13;;;19.90;99.90;;;;;;5020668;28;20028;-71
2022/05/12 04:10:17;;;;;;;36.95;6.78;;;19.90;99.90;;;;;;5014590;28;20034;-70
2022/05/12 04:12:45;;;;;;;37.67;5.85;;;19.90;99.90;;;;;;5025713;28;20481;-70
2022/05/12 04:15:13;;;;;;;37.75;6.70;;;20.00;99.90;;;;;;5029248;28;20033;-70
2022/05/12 04:17:41;;;;;;;36.55;6.00;;;20.00;99.90;;;;;;5022997;28;20073;-70
2022/05/12 04:20:13;;;;;;;39.40;6.07;;;19.90;99.90;;;;;;5025061;28;20034;-71
2022/05/12 04:22:44;;;;;;;29.67;5.47;;;19.90;99.90;;;;;;5026682;28;20025;-71
2022/05/12 04:25:12;;;;;;;38.08;5.93;;;19.90;99.90;;;;;;5026790;28;20370;-69
2022/05/12 04:27:41;;;;;;;34.47;5.45;;;19.90;99.90;;;;;;5025820;28;20470;-69
2022/05/12 04:30:11;;;;;;;34.55;5.47;;;19.90;99.90;;;;;;5028117;28;20544;-70
2022/05/12 04:32:39;;;;;;;28.30;4.10;;;20.00;99.90;;;;;;5024317;28;20053;-70
2022/05/12 04:35:14;;;;;;;39.78;6.28;;;20.00;99.90;;;;;;5023627;28;20036;-71
2022/05/12 04:37:47;;;;;;;37.17;6.05;;;20.00;99.90;;;;;;5023895;28;20394;-70
2022/05/12 04:40:26;;;;;;;27.43;6.03;;;19.90;99.90;;;;;;5025616;28;20041;-69
2022/05/12 04:42:55;;;;;;;39.83;5.78;;;20.00;99.90;;;;;;5024031;28;20017;-69
2022/05/12 04:45:25;;;;;;;30.55;6.43;;;19.90;99.90;;;;;;5028725;28;20599;-71
2022/05/12 04:47:52;;;;;;;35.42;6.03;;;20.00;99.90;;;;;;5025262;28;20034;-69
2022/05/12 04:50:23;;;;;;;26.60;4.78;;;20.00;99.90;;;;;;5022401;28;20037;-69
2022/05/12 04:52:51;;;;;;;23.45;4.63;;;20.00;99.90;;;;;;5029348;28;20080;-69
2022/05/12 04:55:19;;;;;;;28.83;5.25;;;20.00;99.90;;;;;;5022098;28;20032;-69
2022/05/12 04:57:49;;;;;;;31.67;5.80;;;20.00;99.90;;;;;;5028912;28;20026;-69
2022/05/12 05:00:21;;;;;;;30.77;4.85;;;20.10;99.90;;;;;;5028405;28;20021;-69
2022/05/12 05:02:48;;;;;;;34.85;5.85;;;20.10;99.90;;;;;;5021074;28;20075;-69
2022/05/12 05:05:16;;;;;;;30.40;5.85;;;20.10;99.90;;;;;;5028562;28;20037;-69
2022/05/12 05:07:43;;;;;;;22.75;5.05;;;20.10;99.90;;;;;;5026201;28;20497;-69
2022/05/12 05:10:12;;;;;;;32.60;5.20;;;20.10;99.90;;;;;;5025914;28;20029;-69
2022/05/12 05:12:41;;;;;;;35.67;4.85;;;20.10;99.90;;;;;;5028469;28;20021;-69
2022/05/12 05:15:10;;;;;;;28.45;5.45;;;20.10;99.90;;;;;;5030978;28;20049;-68
2022/05/12 05:17:38;;;;;;;32.15;4.85;;;20.00;99.90;;;;;;5032050;28;20026;-69
2022/05/12 05:20:08;;;;;;;33.42;5.18;;;20.00;99.90;;;;;;5020708;28;20036;-69
2022/05/12 05:22:36;;;;;;;31.42;4.65;;;20.00;99.90;;;;;;5020369;28;20101;-69
2022/05/12 05:25:04;;;;;;;30.75;6.15;;;20.00;99.90;;;;;;5026819;28;20032;-69
2022/05/12 05:27:31;;;;;;;31.13;6.47;;;20.00;99.90;;;;;;5018120;28;20202;-69
2022/05/12 05:29:58;;;;;;;39.53;5.53;;;20.00;99.90;;;;;;5022929;28;20018;-69
2022/05/12 05:32:27;;;;;;;29.63;5.07;;;19.90;99.90;;;;;;5015107;28;20096;-69
2022/05/12 05:34:54;;;;;;;31.80;5.45;;;19.80;99.90;;;;;;5024056;28;20030;-69
2022/05/12 05:37:22;;;;;;;33.63;5.25;;;19.80;99.90;;;;;;5015541;28;20040;-69
2022/05/12 05:39:50;;;;;;;32.72;4.72;;;19.80;99.90;;;;;;5025727;28;20099;-69
2022/05/12 05:42:20;;;;;;;44.22;6.85;;;19.70;99.90;;;;;;5015052;28;20037;-70
2022/05/12 05:44:47;;;;;;;32.17;4.47;;;19.70;99.90;;;;;;5018862;28;20520;-69
2022/05/12 05:47:15;;;;;;;34.78;5.05;;;19.70;99.90;;;;;;5030315;28;20034;-69
2022/05/12 05:49:43;;;;;;;32.20;5.82;;;19.60;99.90;;;;;;5019043;28;20026;-69
2022/05/12 05:54:56;;;;;;;33.25;4.63;;;19.60;99.90;;;;;;5026762;28;20116;-70
2022/05/12 05:57:26;;;;;;;29.83;5.10;;;19.60;99.90;;;;;;5034232;28;20033;-69
2022/05/12 06:00:04;;;;;;;27.10;4.93;;;19.50;99.90;;;;;;5025662;28;20508;-70
2022/05/12 06:02:33;;;;;;;23.55;3.63;;;19.50;99.90;;;;;;5015756;28;20080;-69
2022/05/12 06:05:01;;;;;;;24.58;4.07;;;19.40;99.90;;;;;;5030354;28;20409;-69
2022/05/12 06:07:28;;;;;;;20.02;3.50;;;19.40;99.90;;;;;;5032892;28;20448;-70
2022/05/12 06:09:55;;;;;;;30.85;4.75;;;19.50;99.90;;;;;;5025901;28;20076;-70
2022/05/12 06:12:22;;;;;;;29.73;5.22;;;19.40;99.90;;;;;;5014403;28;20021;-70
2022/05/12 06:14:50;;;;;;;27.45;3.53;;;19.40;99.90;;;;;;5019350;28;20022;-69
2022/05/12 06:17:18;;;;;;;21.45;4.03;;;19.40;99.90;;;;;;5020138;28;20440;-69
2022/05/12 06:19:46;;;;;;;24.02;4.38;;;19.40;99.90;;;;;;5022076;28;20394;-69
2022/05/12 06:22:13;;;;;;;24.13;4.28;;;19.30;99.90;;;;;;5022638;28;20029;-70
2022/05/12 06:24:40;;;;;;;24.10;4.47;;;19.40;99.90;;;;;;5025178;28;20404;-70
2022/05/12 06:27:07;;;;;;;28.02;5.28;;;19.40;99.90;;;;;;5022545;28;20116;-70
2022/05/12 06:29:36;;;;;;;21.05;4.13;;;19.40;99.90;;;;;;5023888;28;20112;-70
2022/05/12 06:32:06;;;;;;;26.23;4.70;;;19.40;99.90;;;;;;5024258;28;20029;-70
2022/05/12 06:34:34;;;;;;;24.63;5.22;;;19.30;99.90;;;;;;5027447;28;20398;-69
2022/05/12 06:37:01;;;;;;;28.83;3.75;;;19.30;99.90;;;;;;5023023;28;20025;-69
2022/05/12 06:39:29;;;;;;;20.42;3.33;;;19.30;99.90;;;;;;5025859;28;20028;-70
2022/05/12 06:41:56;;;;;;;24.40;4.60;;;19.20;99.90;;;;;;5032947;28;20041;-69
2022/05/12 06:44:23;;;;;;;24.15;5.20;;;19.20;99.90;;;;;;5025878;28;20025;-70
2022/05/12 06:46:51;;;;;;;26.67;5.35;;;19.30;99.90;;;;;;5020315;28;20025;-70
2022/05/12 06:49:19;;;;;;;20.77;3.70;;;19.20;99.90;;;;;;5024279;28;20033;-71
2022/05/12 06:51:46;;;;;;;20.17;4.22;;;19.20;99.90;;;;;;5028005;28;20113;-71
2022/05/12 06:54:14;;;;;;;34.05;5.40;;;19.20;99.90;;;;;;5021140;28;20034;-70
2022/05/12 06:56:42;;;;;;;26.70;4.93;;;19.30;99.90;;;;;;5022612;28;20022;-70
2022/05/12 06:59:09;;;;;;;25.20;4.93;;;19.20;99.90;;;;;;5023169;28;20029;-70
2022/05/12 07:01:37;;;;;;;19.45;4.15;;;19.30;99.90;;;;;;5030630;28;20030;-70
2022/05/12 07:04:04;;;;;;;36.10;5.63;;;19.20;99.90;;;;;;5017509;28;20034;-70
2022/05/12 07:06:32;;;;;;;28.83;4.60;;;19.30;99.90;;;;;;5022183;28;20394;-69
2022/05/12 07:08:59;;;;;;;29.35;4.22;;;19.30;99.90;;;;;;5020843;28;20033;-70
2022/05/12 07:11:27;;;;;;;24.58;4.45;;;19.30;99.90;;;;;;5035159;28;20033;-70
2022/05/12 07:13:54;;;;;;;20.58;3.70;;;19.30;99.90;;;;;;5032508;28;20030;-70
2022/05/12 07:16:21;;;;;;;18.17;2.95;;;19.40;99.90;;;;;;5040361;28;20021;-70
2022/05/12 07:18:49;;;;;;;25.15;3.95;;;19.40;99.90;;;;;;5041536;28;20034;-71
2022/05/12 07:26:48;;;;;;;21.08;4.32;;;19.50;99.90;;;;;;5018474;28;20103;-70
2022/05/12 07:29:18;;;;;;;25.98;4.05;;;19.50;99.90;;;;;;5025045;28;20494;-69
2022/05/12 07:31:48;;;;;;;20.60;4.28;;;19.50;99.90;;;;;;5018216;28;20108;-69
2022/05/12 07:34:16;;;;;;;25.45;4.38;;;19.50;99.90;;;;;;5023107;28;20029;-70
2022/05/12 07:36:50;;;;;;;21.70;5.18;;;19.50;99.90;;;;;;5025928;28;20045;-69
2022/05/12 07:39:18;;;;;;;;;;;19.50;99.90;;;;;;5028291;28;20108;-70
2022/05/12 07:41:45;;;;;;;28.73;3.00;;;19.50;99.90;;;;;;5017642;28;19917;-71
2022/05/12 07:44:14;;;;;;;27.33;4.20;;;19.50;99.90;;;;;;5027685;28;20497;-69
2022/05/12 07:46:42;;;;;;;22.45;4.50;;;19.50;99.90;;;;;;5019404;28;20034;-69
2022/05/12 07:49:09;;;;;;;24.00;4.53;;;19.50;99.90;;;;;;5025092;28;20052;-70
2022/05/12 07:51:36;;;;;;;23.27;3.45;;;19.50;99.90;;;;;;5024024;28;20048;-69
2022/05/12 07:54:04;;;;;;;25.92;4.10;;;19.50;99.90;;;;;;5028528;28;20033;-69
2022/05/12 07:56:32;;;;;;;21.20;3.45;;;19.50;99.90;;;;;;5033768;28;20477;-69
2022/05/12 07:59:00;;;;;;;22.85;4.35;;;19.60;99.90;;;;;;5027342;28;20021;-69
2022/05/12 08:01:28;;;;;;;22.80;4.40;;;19.50;99.90;;;;;;5021864;28;20504;-68
2022/05/12 08:03:55;;;;;;;28.13;4.85;;;19.60;99.90;;;;;;5031150;28;20358;-68
2022/05/12 08:06:23;;;;;;;31.67;5.43;;;19.60;99.90;;;;;;5025895;28;20021;-68
2022/05/12 08:08:51;;;;;;;31.45;4.82;;;19.50;99.90;;;;;;5019107;28;20032;-68
2022/05/12 08:11:19;;;;;;;34.55;5.20;;;19.50;99.90;;;;;;5026256;28;20517;-68
2022/05/12 08:13:47;;;;;;;27.73;5.22;;;19.50;99.90;;;;;;5033283;28;20477;-68
2022/05/12 08:16:17;;;;;;;31.00;5.07;;;19.50;99.90;;;;;;5018535;28;20054;-68
2022/05/12 08:18:46;;;;;;;32.45;4.82;;;19.50;99.90;;;;;;5020063;28;20041;-68
2022/05/12 08:21:14;;;;;;;28.30;6.15;;;19.50;99.90;;;;;;5022394;28;20025;-70
2022/05/12 08:23:42;;;;;;;37.28;6.50;;;19.50;99.90;;;;;;5021243;28;20026;-69
2022/05/12 08:26:09;;;;;;;27.27;6.05;;;19.50;99.90;;;;;;5017997;28;20470;-69
2022/05/12 08:28:40;;;;;;;31.73;5.10;;;19.50;99.90;;;;;;5016246;28;20034;-68
2022/05/12 08:31:08;;;;;;;26.27;5.22;;;19.50;99.90;;;;;;5027783;28;20404;-68
2022/05/12 08:33:35;;;;;;;30.83;4.93;;;19.50;99.90;;;;;;5026125;28;20026;-68
2022/05/12 08:36:03;;;;;;;26.95;4.35;;;19.50;99.90;;;;;;5027995;28;20037;-69
2022/05/12 08:38:31;;;;;;;24.02;4.18;;;19.40;99.90;;;;;;5027019;28;20072;-68
2022/05/12 08:41:05;;;;;;;27.88;4.97;;;19.40;99.90;;;;;;5017797;28;20030;-68
2022/05/12 08:43:37;;;;;;;23.42;4.13;;;19.40;99.90;;;;;;5023824;28;20493;-68
2022/05/12 08:46:08;;;;;;;25.92;4.63;;;19.40;99.90;;;;;;5015523;28;20044;-68
2022/05/12 08:48:41;;;;;;;29.50;6.47;;;19.40;99.90;;;;;;5025328;28;20022;-68
2022/05/12 08:51:12;;;;;;;30.00;6.40;;;19.50;99.90;;;;;;5030519;28;20030;-68
2022/05/12 08:54:04;;;;;;;31.30;4.75;;;19.40;99.90;;;;;;5025633;28;20172;-68
2022/05/12 08:56:32;;;;;;;35.72;5.55;;;19.40;99.90;;;;;;5031762;28;20041;-68
2022/05/12 08:59:01;;;;;;;28.25;5.10;;;19.30;99.90;;;;;;5017721;28;20036;-67
2022/05/12 09:01:36;;;;;;;28.50;5.68;;;19.40;99.90;;;;;;5033901;28;20029;-68
2022/05/12 09:04:16;;;;;;;33.15;6.80;;;19.40;99.90;;;;;;5026024;28;20394;-68
2022/05/12 09:07:27;;;;;;;23.85;5.07;;;19.30;99.90;;;;;;5017092;28;20040;-68
2022/05/12 09:10:00;;;;;;;22.88;4.72;;;19.40;99.90;;;;;;5019574;28;20049;-68
2022/05/12 09:12:38;;;;;;;31.38;5.28;;;19.30;99.90;;;;;;5027199;28;20371;-68
2022/05/12 09:15:08;;;;;;;29.17;5.10;;;19.30;99.90;;;;;;5026105;28;20060;-67
2022/05/12 09:17:44;;;;;;;30.42;6.45;;;19.30;99.90;;;;;;5021843;28;20061;-67
2022/05/12 09:20:12;;;;;;;26.17;5.88;;;19.30;99.90;;;;;;5028737;28;20390;-67
2022/05/12 09:22:41;;;;;;;26.30;4.45;;;19.30;99.90;;;;;;5029027;28;20025;-67
2022/05/12 09:25:10;;;;;;;31.00;5.75;;;19.30;99.90;;;;;;5015927;28;20117;-67
2022/05/12 09:27:40;;;;;;;30.48;5.78;;;19.30;99.90;;;;;;5028875;28;20569;-67
2022/05/12 09:30:12;;;;;;;23.95;4.85;;;19.20;99.90;;;;;;5028476;28;20485;-67
2022/05/12 09:32:40;;;;;;;29.88;6.60;;;19.30;99.90;;;;;;5032360;28;20076;-67
2022/05/12 09:35:24;;;;;;;29.92;4.25;;;19.30;99.90;;;;;;5029376;28;20477;-67
2022/05/12 09:37:52;;;;;;;31.60;4.95;;;19.30;99.90;;;;;;5014717;28;20026;-67
2022/05/12 09:40:37;;;;;;;23.52;4.40;;;19.30;99.90;;;;;;5021391;28;20038;-67
2022/05/12 09:43:20;;;;;;;27.20;4.38;;;19.20;99.90;;;;;;5034169;28;20054;-67
2022/05/12 09:46:18;;;;;;;26.27;4.97;;;19.20;99.90;;;;;;5032465;28;20025;-67
2022/05/12 09:48:50;;;;;;;26.83;4.45;;;19.20;99.90;;;;;;5015327;28;20024;-67
2022/05/12 09:51:25;;;;;;;29.92;5.32;;;19.20;99.90;;;;;;5018417;28;20026;-67
2022/05/12 09:53:55;;;;;;;24.45;4.50;;;19.20;99.90;;;;;;5032699;28;20029;-67
2022/05/12 09:56:41;;;;;;;24.63;4.45;;;19.10;99.90;;;;;;5024086;28;20117;-67
2022/05/12 09:59:15;;;;;;;30.38;4.80;;;19.20;99.90;;;;;;5033098;28;20036;-67
2022/05/12 10:02:04;;;;;;;25.75;4.82;;;19.20;99.90;;;;;;5028274;28;20058;-67
2022/05/12 10:10:35;;;;;;;21.58;4.40;;;19.20;99.90;;;;;;5027748;28;20044;-68
2022/05/12 10:13:23;;;;;;;19.35;3.65;;;19.20;99.90;;;;;;5025572;28;20025;-68
2022/05/12 10:15:53;;;;;;;24.48;4.88;;;19.10;99.90;;;;;;5022026;28;20037;-68
2022/05/12 10:18:43;;;;;;;23.25;4.82;;;19.10;99.90;;;;;;5018421;28;20061;-67
2022/05/12 10:21:15;;;;;;;22.75;3.88;;;19.10;99.90;;;;;;5013921;28;20062;-68
2022/05/12 10:24:25;;;;;;;24.33;4.15;;;19.10;99.90;;;;;;5028128;28;20030;-67
2022/05/12 10:27:15;;;;;;;21.75;4.32;;;19.10;99.90;;;;;;5016827;28;20481;-68
2022/05/12 10:29:55;;;;;;;29.38;8.77;;;19.10;99.90;;;;;;5017561;28;20032;-67
2022/05/12 10:32:47;;;;;;;18.92;3.80;;;19.10;99.90;;;;;;5017121;28;20030;-67
2022/05/12 10:35:23;;;;;;;21.65;3.53;;;19.10;99.90;;;;;;5013852;28;20038;-67
2022/05/12 10:38:01;;;;;;;15.98;3.78;;;19.10;99.90;;;;;;5024483;28;20112;-68
2022/05/12 10:40:32;;;;;;;25.67;4.82;;;19.10;99.90;;;;;;5021789;28;20470;-67
2022/05/12 10:43:20;;;;;;;26.83;5.78;;;19.20;99.90;;;;;;5032430;28;20029;-67
2022/05/12 10:46:01;;;;;;;21.10;5.85;;;19.10;99.90;;;;;;5013629;28;20147;-68
2022/05/12 10:48:42;;;;;;;22.90;5.70;;;19.10;99.90;;;;;;5022617;28;20027;-67
2022/05/12 10:51:53;;;;;;;26.80;4.93;;;19.20;99.90;;;;;;5022173;28;20029;-68
2022/05/12 10:54:27;;;;;;;28.42;6.72;;;19.10;99.90;;;;;;5014252;28;20065;-67
2022/05/12 10:57:17;;;;;;;40.88;15.27;;;19.20;99.90;;;;;;5015141;28;20087;-67
2022/05/12 10:59:51;;;;;;;35.75;12.13;;;19.20;99.90;;;;;;5013249;28;20405;-68
2022/05/12 11:02:38;;;;;;;25.05;4.38;;;19.30;99.90;;;;;;5026182;28;20029;-67
2022/05/12 11:05:10;;;;;;;33.58;5.75;;;19.20;99.90;;;;;;5018951;28;20033;-68
2022/05/12 11:08:09;;;;;;;35.33;7.10;;;19.10;99.90;;;;;;5024000;28;20053;-67
2022/05/12 11:10:52;;;;;;;33.63;4.95;;;19.20;99.90;;;;;;5027621;28;20026;-67
2022/05/12 11:13:32;;;;;;;23.20;4.03;;;19.20;99.90;;;;;;5016007;28;20464;-67
2022/05/12 11:16:04;;;;;;;25.80;4.28;;;19.20;99.90;;;;;;5013172;28;20109;-67
2022/05/12 11:19:03;;;;;;;20.40;4.38;;;19.10;99.90;;;;;;5031395;28;20104;-67
2022/05/12 11:21:31;;;;;;;24.05;4.35;;;19.10;99.90;;;;;;5012667;28;20044;-68
2022/05/12 11:24:16;;;;;;;26.63;5.03;;;19.20;99.90;;;;;;5022455;28;20022;-68
2022/05/12 11:26:55;;;;;;;30.00;5.15;;;19.10;99.90;;;;;;5017137;28;20098;-65
2022/05/12 11:29:51;;;;;;;27.73;4.18;;;19.10;99.90;;;;;;5019943;28;20356;-68
2022/05/12 11:32:24;;;;;;;29.30;5.15;;;19.10;99.90;;;;;;5018137;28;20032;-67
2022/05/12 11:35:23;;;;;;;26.35;4.03;;;19.10;99.90;;;;;;5016678;28;20037;-68
2022/05/12 11:37:59;;;;;;;16.70;3.30;;;19.10;99.90;;;;;;5020072;28;20517;-67
2022/05/12 11:40:43;;;;;;;27.88;4.95;;;19.10;99.90;;;;;;5014936;28;20524;-67
2022/05/12 11:46:22;;;;;;;24.33;3.35;;;19.00;99.90;;;;;;5027378;28;19959;-67
2022/05/12 11:49:08;;;;;;;24.70;4.35;;;19.00;99.90;;;;;;5022583;28;20569;-67
2022/05/12 11:52:12;;;;;;;23.10;3.88;;;19.00;99.90;;;;;;5014094;28;20050;-67
2022/05/12 11:54:49;;;;;;;24.75;4.03;;;19.00;99.90;;;;;;5013366;28;20132;-67
2022/05/12 11:57:34;;;;;;;22.40;3.85;;;19.10;99.90;;;;;;5025078;28;20033;-67
2022/05/12 12:00:26;;;;;;;22.77;3.92;;;19.00;99.90;;;;;;5019264;28;20056;-67
2022/05/12 12:02:53;;;;;;;27.13;3.90;;;19.00;99.90;;;;;;5030527;28;20044;-67
2022/05/12 12:05:40;;;;;;;27.45;4.60;;;19.00;99.90;;;;;;5025976;28;20385;-67
2022/05/12 12:08:10;;;;;;;22.75;4.47;;;19.00;99.90;;;;;;5018837;28;20044;-67
2022/05/12 12:10:43;;;;;;;27.85;4.03;;;19.00;99.90;;;;;;5022936;28;20024;-68
2022/05/12 12:13:16;;;;;;;20.33;3.50;;;19.00;99.90;;;;;;5016242;28;20026;-68
2022/05/12 12:16:10;;;;;;;23.85;5.05;;;18.90;99.90;;;;;;5022010;28;20021;-67
2022/05/12 12:18:38;;;;;;;24.48;4.22;;;18.90;99.90;;;;;;5025112;28;20607;-67
2022/05/12 12:21:43;;;;;;;19.83;3.75;;;18.90;99.90;;;;;;5019187;28;20038;-68
2022/05/12 12:24:20;;;;;;;22.80;3.55;;;18.90;99.90;;;;;;5025388;28;20036;-68
2022/05/12 12:26:56;;;;;;;26.63;4.45;;;19.00;99.90;;;;;;5019372;28;20041;-67
2022/05/12 12:29:45;;;;;;;26.10;4.43;;;19.00;99.90;;;;;;5021051;28;20053;-68
2022/05/12 12:32:34;;;;;;;22.38;4.05;;;18.90;99.90;;;;;;5021305;28;20072;-68
2022/05/12 12:35:28;;;;;;;21.02;3.85;;;18.90;99.90;;;;;;5022527;28;20022;-68
2022/05/12 12:37:55;;;;;;;26.90;4.00;;;18.90;99.90;;;;;;5024544;28;20041;-68
2022/05/12 12:40:32;;;;;;;15.48;2.58;;;18.90;99.90;;;;;;5021113;28;20045;-68
2022/05/12 12:43:32;;;;;;;18.50;4.18;;;18.90;99.90;;;;;;5025941;28;20022;-68
2022/05/12 12:46:10;;;;;;;19.00;3.58;;;18.90;99.90;;;;;;5022116;28;20041;-68
2022/05/12 12:48:46;;;;;;;20.77;3.67;;;19.00;99.90;;;;;;5029021;28;20021;-68
2022/05/12 12:51:13;;;;;;;15.23;3.20;;;18.90;99.90;;;;;;5026081;28;20105;-68
2022/05/12 12:56:35;;;;;;;13.85;3.13;;;19.00;99.90;;;;;;5024379;28;20786;-68
2022/05/12 12:59:21;;;;;;;21.35;4.30;;;18.90;99.90;;;;;;5024670;28;20083;-68
2022/05/12 13:01:55;;;;;;;19.15;4.38;;;18.90;99.90;;;;;;5022177;28;20032;-68
2022/05/12 13:04:25;;;;;;;20.92;4.43;;;18.90;99.90;;;;;;5022597;28;20497;-67
2022/05/12 13:06:55;;;;;;;23.60;4.57;;;18.90;99.90;;;;;;5019530;28;20022;-67
2022/05/12 13:09:47;;;;;;;17.52;4.70;;;18.90;99.90;;;;;;5021889;28;20040;-67
2022/05/12 13:12:23;;;;;;;16.15;4.68;;;18.90;99.90;;;;;;5028579;28;20080;-68
2022/05/12 13:14:52;;;;;;;22.55;4.78;;;18.90;99.90;;;;;;5021851;28;20033;-67
2022/05/12 13:17:24;;;;;;;19.42;4.35;;;18.90;99.90;;;;;;5025789;28;20026;-67
2022/05/12 13:19:52;;;;;;;20.40;5.35;;;18.90;99.90;;;;;;5023823;28;20462;-67
2022/05/12 13:22:50;;;;;;;23.15;5.70;;;18.90;99.90;;;;;;5023958;28;20029;-67